Racecast

Luke Trinrud

UC-Colorado Springs (CO) · Jr · TX D3ADistrict 9 · Compare head to head

what a rating means
100 is the average runner in the athlete's pool; a rating of 133 means 33% faster than that average runner. Ratings are distance-normalised and course-adjusted, so a hard course and a fast track land on one number. Each pool (high school boys, college women, middle school…) has its own average, and the HS-equivalent view puts every pool on the high-school scale.
Athlete rating
Races 89
Seasons 6 2021 — 2026
Speed rating — all races

Track & Field

TF speed rating

2026 TF

UC-Colorado Springs (CO) · Grade Jr

Date Meet Event Result Place Rating Difficulty PR/SR Flags
2026-05-09 Loper Twilight 100m 10.86 5th · 3rd on team +1.0%
2026-04-26 Rocky Mountain Athletic Conference Outdoor Championships 100m 10.71 16th · 7th on team +2.6% SR
2026-04-26 Rocky Mountain Athletic Conference Outdoor Championships 200m 21.93 22nd · 5th on team +2.6%
2026-04-11 Jo Meaker Classic and Multi 200m 21.88 32nd · 4th on team +1.4% SR
2026-04-11 Jo Meaker Classic and Multi 100m 10.84 40th · 7th on team +1.4%
2026-03-27 Chuck Haering Invitational 100m 10.95 13th · 6th on team +2.6%
2026-03-20 Dr. Dan Caprioglio Invitational 200m 22.54 26th · 8th on team +2.6%
2026-03-20 Dr. Dan Caprioglio Invitational 100m 10.83 15th · 9th on team +2.6% SR
2026-02-27 Rocky Mountain Athletic Conference Indoor Championships 60m 7.12 28th · 8th on team +3.5%
2025-12-12 UCCS Pre-Holiday Invite & Multi 60m 6.95 12th · 8th on team +2.4%
2025-12-12 UCCS Pre-Holiday Invite & Multi 60m 6.87 7th · 5th on team +2.4%
2025-12-12 UCCS Pre-Holiday Invite & Multi 200m 22.36 1st · 1st on team +2.4% SR
2025-12-05 Mines Alumni Classic 60m 6.92 12th · 8th on team +2.0% SR
2025-12-05 Mines Alumni Classic 60m 6.84 8th · 5th on team +2.0% ★PR SR

2025 TF

UC-Colorado Springs (CO) · Grade So

Date Meet Event Result Place Rating Difficulty PR/SR Flags
2025-05-10 Loper Twilight 100m 10.56 5th · 1st on team +1.0% ★PR SR
2025-05-10 Loper Twilight 200m 21.31 7th · 2nd on team +1.0% ★PR SR
2025-05-09 Concordia Twilight 100m 10.75 6th · 3rd on team +0.5%
2025-04-27 RMAC Outdoor Championships 100m 10.91 19th · 8th on team +2.7%
2025-04-27 RMAC Outdoor Championships 200m 21.8 22nd · 8th on team +2.7%
2025-04-10 2025 Jo Meaker Classic and Multi 200m 21.51 30th · 4th on team +1.4% PR SR
2025-04-10 2025 Jo Meaker Classic and Multi 100m 10.72 29th · 4th on team +1.4% PR SR
2025-03-28 Chuck Haering Classic 200m 22.1 7th · 2nd on team +2.6% SR
2025-03-28 Chuck Haering Classic 100m 10.85 5th · 3rd on team +2.6% SR
2025-03-21 Dr Dan Caprioglio Early Bird 100m 10.95 23rd · 4th on team +2.6% SR
2025-02-28 Rocky Mountain Athletic Conference Indoor Track & Field Championship 60m 6.87 14th · 7th on team +2.4% PR SR
2025-02-28 Rocky Mountain Athletic Conference Indoor Track & Field Championship 200m 22.38 13th · 7th on team +2.4%
2025-02-15 Mountain Lion Open 60m 6.92 8th · 5th on team +2.4% PR SR
2025-02-15 Mountain Lion Open 200m 22.24 1st · 1st on team +2.4% SR
2025-02-01 Big Red Machine Open 200m 22.45 3rd · 3rd on team +3.5% SR
2025-01-25 Colorado Running Company UCCS Invite 60m 7.14 23rd · 9th on team +2.4%
2025-01-17 Colorado Classic 200m 22.98 21st · 3rd on team +1.4% SR
2024-12-13 Colorado Running Company Pre-Holiday Invite & Multi 60m 7.08 20th · 4th on team +2.4%
2024-12-13 Colorado Running Company Pre-Holiday Invite & Multi 200m 23.09 4th · 1st on team +2.4% SR
2024-12-06 Mines Alumni Classic 60m 7.04 16th · 7th on team +2.0% SR

2024 TF

UC-Colorado Springs (CO) · Grade Fr

Date Meet Event Result Place Rating Difficulty PR/SR Flags
2024-04-28 RMAC Outdoor Championships 100m 11.3 33rd · 13th on team +1.7%
2024-04-28 RMAC Outdoor Championships 200m 22.19 29th · 10th on team +1.7%
2024-04-06 Jo Meaker Classic and Multi 200m 22.03 29th · 7th on team +1.4% SR
2024-04-06 Jo Meaker Classic and Multi 100m 10.79 28th · 7th on team +1.4% SR
2024-03-22 CSU Pueblo Spank Blasing Meet 100m 10.95 28th · 6th on team +2.6%
2024-03-22 CSU Pueblo Spank Blasing Meet 200m 22.5 33rd · 7th on team +2.6%
2024-03-16 Dr. Dan Caprioglio Invite 100m 10.88 11th · 9th on team +2.6% SR
2024-03-16 Dr. Dan Caprioglio Invite 200m 22.49 13th · 8th on team +2.6%
2024-02-24 RMAC Indoor Track & Field Championships 60m 7.21 26th · 13th on team +0.9%
2024-02-16 Air Force Last Chance 60m 7.17 21st · 5th on team +2.9%
2024-01-13 Potts Invitational 200m 22.48 19th · 6th on team +1.4% SR
2023-12-09 Colorado Running Company Pre-Holiday Invite & Multi 200m 23.36 11th · 7th on team +2.4% SR
2023-12-09 Colorado Running Company Pre-Holiday Invite & Multi 60m 7.03 15th · 10th on team +2.4%
2023-12-02 Mines Alumni Classic 60m 7.02 27th · 13th on team +2.0% PR SR

2023 TF

Grandview (CO) · Grade 12

Date Meet Event Result Place Rating Difficulty PR/SR Flags
2023-05-20 Colorado 5A State Championships 100m 10.97 12th · 2nd on team +2.1%
2023-05-20 Colorado 5A State Championships 200m 22.11 15th · 1st on team +2.1%
2023-05-20 Colorado 5A State Championships 100m 10.91 11th · 1st on team +2.1%
2023-05-06 Doherty Spartan Invitational 100m 10.81 3rd · 1st on team +2.8%
2023-05-06 Doherty Spartan Invitational 100m 10.95 7th · 2nd on team +2.8%
2023-04-29 Stutler Twilight 200m 21.76 2nd · 1st on team +1.8% PR SR
2023-04-29 Stutler Twilight 100m 10.77 1st · 1st on team +1.8% PR SR
2023-04-08 2023 Arcadia Invitational 100m 11.06 22nd · 2nd on team -1.7%
2023-04-08 2023 Arcadia Invitational 200m 22.46 17th · 2nd on team -1.7%
2023-04-01 Altitude Running Invitational 100m 10.97 5th · 1st on team +2.5%
2023-03-23 Denver South Ravens Invitational 100m 10.86 3rd · 2nd on team +2.0% PR SR
2023-03-23 Denver South Ravens Invitational 200m 22.37 3rd · 2nd on team +2.0% SR
2023-03-18 20th Annual California Relays 100m 11.01 9th · 2nd on team -0.8% SR
2023-03-12 2023 Nike Indoor Nationals 55m 6.69 40th · 2nd on team -1.7% ★PR SR
2023-03-12 2023 Nike Indoor Nationals 60m 7.17 57th · 3rd on team -1.7%
2023-02-04 Air Force HS Indoor 60m 7.1 12th · 4th on team +2.9% PR SR
2023-02-04 Air Force HS Indoor 200m 22.72 7th · 2nd on team +2.9% SR
2023-01-15 2024 Martin Luther King Jr Mile Hi Classic 200m 22.92 4th · 1st on team +2.9% SR
2023-01-15 2024 Martin Luther King Jr Mile Hi Classic 60m 7.12 2nd · 1st on team +2.9% PR SR
2022-12-17 Let's Get REAL Indoor Invitational #1 60m 7.18 6th · 2nd on team +2.4% PR SR

2022 TF

Grandview (CO) · Grade 11

Date Meet Event Result Place Rating Difficulty PR/SR Flags
2022-06-19 2022 Nike Outdoor Nationals 100m 11.19 32nd · 3rd on team -0.7%
2022-05-21 CHSSA State Championships 100m 11.09 13th · 3rd on team +2.1%
2022-05-21 CHSSA State Championships 100m 11.16 20th · 5th on team +2.1%
2022-05-21 CHSSA State Championships 200m 22.59 25th · 5th on team +2.1%
2022-05-14 Centennial League Varsity Championships 200m 22.37 6th · 3rd on team +1.8% PR SR
2022-05-14 Centennial League Varsity Championships 200m 22.39 7th · 4th on team +1.8%
2022-04-23 Dakota Ridge Invitational 100m 10.88 5th · 2nd on team +2.1% PR SR
2022-04-23 Dakota Ridge Invitational 200m 23.08 9th · 1st on team +2.1%
2022-04-02 Aurora City Championships 100m 11.25 2nd · 1st on team +2.5% PR SR
2022-04-02 Aurora City Championships 200m 22.52 3rd · 1st on team +2.5% PR SR
2022-03-26 Broomfield Shootout 100m 11.28 13th · 3rd on team +2.1% PR SR
2022-03-26 Broomfield Shootout 200m 22.94 8th · 1st on team +2.1% PR SR
2022-03-19 California Relays 100m 11.38 22nd · 4th on team -0.8% PR SR

2021 TF

Grandview (CO) · Grade 10

Date Meet Event Result Place Rating Difficulty PR/SR Flags
2021-06-19 Continental League Championships 200m 24.33 20th · 6th on team +2.9%
2021-06-12 Stutler Twilight 100m 12.21 39th · 11th on team +1.8%
2021-05-28 B-Town Twilight Meet 100m 11.53 13th · 8th on team +2.1% PR SR
2021-05-28 B-Town Twilight Meet 200m 26.02 36th · 2nd on team +2.1%
2021-05-15 Centennial League Qualifier #2 200m 24.13 4th · 3rd on team +5.2%
2021-05-15 Centennial League Qualifier #2 100m 11.76 11th · 6th on team +5.2%
2021-05-08 Centennial League Qualifier #1 100m 11.57 8th · 6th on team +1.8% PR SR
2021-05-08 Centennial League Qualifier #1 200m 23.59 5th · 3rd on team +1.8% PR SR